Time;durP1;ratioP1;P1;durP2;ratioP2;P2;SDS_P1;SDS_P2;PMS_P1;PMS_P2;Temp;Humidity;BMP_temperature;BMP_pressure;BME280_temperature;BME280_humidity;BME280_pressure;Samples;Min_cycle;Max_cycle;Signal;HPM_P1;HPM_P2
2021/12/01 00:02:21;;;;;;;17.80;11.45;;;;;;;-1.10;64.47;94848.75;5010783;28;20319;-62
2021/12/01 00:04:47;;;;;;;9.80;6.00;;;;;;;-1.05;62.65;94857.13;5011011;28;20088;-62
2021/12/01 00:07:12;;;;;;;9.75;5.55;;;;;;;-1.17;62.50;94837.94;5009844;28;20046;-61
2021/12/01 00:09:38;;;;;;;8.25;5.57;;;;;;;-1.10;62.91;94856.34;5011000;28;20058;-61
2021/12/01 00:12:04;;;;;;;12.32;5.93;;;;;;;-1.22;63.10;94866.72;5010662;28;20037;-62
2021/12/01 00:14:29;;;;;;;10.05;6.15;;;;;;;-1.21;63.14;94869.22;5009047;28;20038;-60
2021/12/01 00:16:54;;;;;;;13.07;6.47;;;;;;;-1.23;62.54;94842.28;5010145;28;20030;-60
2021/12/01 00:19:20;;;;;;;11.05;7.70;;;;;;;-1.03;64.13;94852.84;5010526;28;20040;-61
2021/12/01 00:21:45;;;;;;;13.65;9.15;;;;;;;-1.01;64.21;94842.69;5009052;28;20493;-62
2021/12/01 00:24:11;;;;;;;15.27;8.48;;;;;;;-1.27;65.45;94833.91;5025818;28;20131;-61
2021/12/01 00:26:37;;;;;;;13.43;8.25;;;;;;;-1.39;66.13;94827.41;5010470;28;20111;-62
2021/12/01 00:29:02;;;;;;;14.98;9.00;;;;;;;-1.78;66.07;94808.78;5009938;28;20436;-62
2021/12/01 00:31:28;;;;;;;14.02;7.38;;;;;;;-1.45;66.58;94867.16;5010281;28;20026;-61
2021/12/01 00:33:53;;;;;;;12.57;8.63;;;;;;;-1.75;67.15;94862.63;5010200;28;20026;-61
2021/12/01 00:36:19;;;;;;;15.43;9.07;;;;;;;-2.14;68.15;94832.13;5010053;28;20038;-61
2021/12/01 00:38:45;;;;;;;15.20;10.48;;;;;;;-2.39;69.29;94831.69;5010007;28;20770;-61
2021/12/01 00:41:12;;;;;;;15.23;9.25;;;;;;;-2.03;68.67;94855.53;5009720;28;20052;-62
2021/12/01 00:43:39;;;;;;;18.35;10.10;;;;;;;-2.17;69.56;94859.97;5009935;28;20030;-61
2021/12/01 00:46:19;;;;;;;18.95;10.60;;;;;;;-2.22;69.36;94844.06;5010458;28;20022;-61
2021/12/01 00:48:44;;;;;;;15.00;8.88;;;;;;;-2.14;69.59;94862.44;5010138;28;20028;-61
2021/12/01 00:51:10;;;;;;;18.88;10.70;;;;;;;-2.23;69.88;94858.38;5009709;28;20026;-60
2021/12/01 00:53:35;;;;;;;15.70;9.82;;;;;;;-2.15;69.70;94852.38;5009995;28;20030;-62
2021/12/01 00:56:01;;;;;;;17.70;10.38;;;;;;;-2.22;70.09;94847.41;5009928;28;20417;-61
2021/12/01 00:58:26;;;;;;;16.48;11.43;;;;;;;-2.11;69.55;94852.28;5009768;28;20034;-61
2021/12/01 01:00:52;;;;;;;17.63;9.35;;;;;;;-2.12;69.40;94843.03;5009602;28;20036;-61
2021/12/01 01:03:18;;;;;;;19.20;11.32;;;;;;;-2.23;70.51;94837.31;5009978;28;20026;-59
2021/12/01 01:05:44;;;;;;;16.35;10.00;;;;;;;-2.14;70.82;94844.75;5009172;28;20136;-60
2021/12/01 01:08:10;;;;;;;16.70;10.02;;;;;;;-2.04;70.38;94842.91;5009687;28;20132;-59
2021/12/01 01:18:47;;;;;;;15.50;8.95;;;;;;;-2.14;71.12;94851.53;5008928;28;20041;-63
2021/12/01 01:21:13;;;;;;;15.18;10.23;;;;;;;-2.18;71.43;94865.03;5008730;28;20026;-62
2021/12/01 01:23:39;;;;;;;15.88;10.65;;;;;;;-2.03;71.07;94865.63;5008987;28;20053;-62
2021/12/01 01:26:09;;;;;;;14.63;8.88;;;;;;;-1.88;69.30;94849.38;5009127;28;20073;-61
2021/12/01 01:28:37;;;;;;;13.63;8.95;;;;;;;-1.75;68.72;94846.66;5009602;28;20037;-60
2021/12/01 01:31:03;;;;;;;16.70;9.63;;;;;;;-1.67;68.79;94868.41;5008570;28;20029;-60
2021/12/01 01:33:28;;;;;;;13.48;9.63;;;;;;;-1.73;69.53;94871.03;5008975;28;20567;-61
2021/12/01 01:35:54;;;;;;;14.57;9.05;;;;;;;-1.63;68.81;94868.34;5007518;28;20482;-61
2021/12/01 01:38:19;;;;;;;12.95;8.48;;;;;;;-1.51;67.83;94868.09;5008482;28;20712;-62
2021/12/01 01:40:45;;;;;;;12.93;8.57;;;;;;;-1.67;67.87;94817.81;5008968;28;20056;-63
2021/12/01 01:43:12;;;;;;;15.25;8.68;;;;;;;-1.40;68.05;94866.22;5007429;28;20038;-61
2021/12/01 01:45:37;;;;;;;10.18;5.90;;;;;;;-1.26;65.81;94860.91;5009005;28;20476;-60
2021/12/01 01:48:08;;;;;;;9.75;6.68;;;;;;;-1.13;67.38;94859.78;5007353;28;20022;-61
2021/12/01 01:50:36;;;;;;;12.68;7.13;;;;;;;-1.30;67.34;94831.44;5008992;28;20137;-62
2021/12/01 01:53:11;;;;;;;12.38;8.68;;;;;;;-1.46;68.13;94843.56;5008038;28;20127;-60
2021/12/01 01:55:42;;;;;;;12.00;8.00;;;;;;;-1.57;69.86;94843.78;4989544;28;20192;-60
2021/12/01 01:58:08;;;;;;;16.08;7.65;;;;;;;-1.59;68.64;94832.88;4989053;28;20409;-62
2021/12/01 02:00:44;;;;;;;12.63;7.25;;;;;;;-1.82;69.00;94827.38;4989209;28;20038;-61
2021/12/01 02:03:14;;;;;;;12.43;7.80;;;;;;;-1.88;70.02;94856.13;4988754;28;20561;-61
2021/12/01 02:05:39;;;;;;;13.50;7.43;;;;;;;-2.01;70.10;94809.19;5004452;28;20026;-61
2021/12/01 02:08:14;;;;;;;11.05;7.72;;;;;;;-2.01;69.81;94806.66;5008252;28;20092;-61
2021/12/01 02:10:41;;;;;;;10.77;7.28;;;;;;;-1.74;70.31;94841.56;5007251;28;20041;-62
2021/12/01 02:13:06;;;;;;;12.40;7.57;;;;;;;-1.68;70.14;94818.69;5008751;28;20022;-62
2021/12/01 02:15:32;;;;;;;9.65;7.70;;;;;;;-1.59;68.75;94817.69;5008279;28;20026;-62
2021/12/01 02:17:57;;;;;;;12.07;7.45;;;;;;;-1.59;68.75;94839.59;5007853;28;20045;-62
2021/12/01 02:20:23;;;;;;;12.13;7.95;;;;;;;-1.41;68.11;94826.63;5008190;28;20076;-62
2021/12/01 02:22:48;;;;;;;13.15;8.10;;;;;;;-1.39;68.63;94836.72;5008371;28;20038;-62
2021/12/01 02:25:14;;;;;;;13.52;8.68;;;;;;;-1.51;68.72;94832.69;5008095;28;20041;-61
2021/12/01 02:27:40;;;;;;;13.20;8.10;;;;;;;-1.27;68.29;94826.34;5008710;28;20026;-61
2021/12/01 02:30:06;;;;;;;11.88;7.80;;;;;;;-1.23;68.66;94822.88;5007748;28;20030;-60
2021/12/01 02:32:31;;;;;;;10.70;7.47;;;;;;;-1.27;67.59;94800.22;5008171;28;20058;-61
2021/12/01 02:34:57;;;;;;;9.50;6.50;;;;;;;-1.18;66.58;94815.19;5007351;28;20068;-60
2021/12/01 02:37:23;;;;;;;12.18;7.68;;;;;;;-1.35;67.46;94820.59;5007813;28;20065;-61
2021/12/01 02:39:52;;;;;;;13.77;7.15;;;;;;;-1.36;68.05;94806.25;5008150;28;20476;-60
2021/12/01 02:42:19;;;;;;;12.10;7.88;;;;;;;-1.17;67.88;94807.56;5007651;28;20036;-60
2021/12/01 02:44:46;;;;;;;10.68;7.18;;;;;;;-1.27;66.32;94757.19;5007673;28;20030;-59
2021/12/01 02:47:12;;;;;;;11.80;6.50;;;;;;;-1.09;67.29;94819.25;5008115;28;20030;-61
2021/12/01 02:49:38;;;;;;;11.77;6.63;;;;;;;-0.94;66.86;94819.72;5008336;28;20037;-61
2021/12/01 02:52:04;;;;;;;8.30;4.68;;;;;;;-0.83;65.16;94816.16;5007986;28;20030;-59
2021/12/01 02:54:29;;;;;;;12.30;7.22;;;;;;;-0.95;66.11;94824.84;5010639;28;20031;-60
2021/12/01 02:56:56;;;;;;;9.90;7.03;;;;;;;-1.16;67.24;94806.72;5012120;28;20073;-61
2021/12/01 02:59:22;;;;;;;11.55;8.00;;;;;;;-1.22;67.33;94809.34;5011986;28;20033;-61
2021/12/01 03:01:48;;;;;;;9.43;5.90;;;;;;;-1.18;67.60;94794.94;5012393;28;20026;-61
2021/12/01 03:04:15;;;;;;;10.80;7.40;;;;;;;-1.08;67.01;94814.16;5011692;28;20033;-60
2021/12/01 03:06:43;;;;;;;11.10;7.15;;;;;;;-1.08;67.70;94806.56;5010992;28;20037;-60
2021/12/01 03:09:09;;;;;;;9.68;6.35;;;;;;;-0.93;67.10;94821.41;5012018;28;20420;-61
2021/12/01 03:11:36;;;;;;;10.18;6.70;;;;;;;-0.82;66.57;94825.41;5012129;28;20697;-60
2021/12/01 03:14:07;;;;;;;10.18;6.18;;;;;;;-0.97;66.43;94797.03;5011780;28;20034;-59
2021/12/01 03:16:34;;;;;;;11.20;7.22;;;;;;;-0.83;66.83;94833.88;5011470;28;20112;-60
2021/12/01 03:19:00;;;;;;;8.40;5.35;;;;;;;-0.93;67.11;94807.91;5011318;28;20092;-64
2021/12/01 03:21:25;;;;;;;11.50;5.88;;;;;;;-0.86;65.98;94826.34;5011418;28;20456;-61
2021/12/01 03:23:51;;;;;;;9.07;5.97;;;;;;;-1.16;67.91;94806.72;5011626;28;20022;-62
2021/12/01 03:26:16;;;;;;;9.82;6.15;;;;;;;-0.81;67.84;94810.16;5011311;28;20049;-61
2021/12/01 03:28:42;;;;;;;9.93;4.97;;;;;;;-1.10;68.07;94825.97;5011379;28;20453;-62
2021/12/01 03:31:07;;;;;;;6.72;4.75;;;;;;;-1.50;67.67;94773.69;5011066;28;20032;-62
2021/12/01 03:33:33;;;;;;;6.68;4.10;;;;;;;-1.31;68.75;94809.56;5011418;28;20030;-60
2021/12/01 03:35:59;;;;;;;8.50;4.75;;;;;;;-1.49;68.85;94785.47;5011515;28;20038;-60
2021/12/01 03:38:27;;;;;;;6.18;4.28;;;;;;;-0.97;67.96;94849.34;5010747;28;20134;-61
2021/12/01 03:40:54;;;;;;;5.95;3.95;;;;;;;-1.27;67.48;94806.09;5011178;28;20485;-61
2021/12/01 03:43:19;;;;;;;5.32;3.70;;;;;;;-1.04;67.87;94846.09;5010736;28;20026;-59
2021/12/01 03:45:45;;;;;;;7.88;5.13;;;;;;;-0.97;67.47;94844.28;5011174;28;20036;-63
2021/12/01 03:48:11;;;;;;;6.93;3.97;;;;;;;-1.12;66.09;94782.16;5010767;28;20036;-60
2021/12/01 03:50:38;;;;;;;7.68;4.53;;;;;;;-0.75;65.82;94832.00;5011383;28;20026;-60
2021/12/01 03:53:04;;;;;;;6.40;4.10;;;;;;;-0.86;65.52;94785.84;5010595;28;20117;-61
2021/12/01 03:55:29;;;;;;;6.20;4.40;;;;;;;-0.58;64.67;94826.56;5011285;28;20101;-60
2021/12/01 03:57:55;;;;;;;12.05;4.00;;;;;;;-0.39;64.23;94837.94;5011296;28;20045;-59
2021/12/01 04:00:20;;;;;;;5.75;3.60;;;;;;;-0.07;62.65;94843.94;5010871;28;20030;-60
2021/12/01 04:02:46;;;;;;;4.70;3.40;;;;;;;0.13;61.30;94829.91;5011172;28;20021;-61
2021/12/01 04:05:12;;;;;;;4.80;3.53;;;;;;;0.25;61.26;94836.41;5009512;28;20037;-61
2021/12/01 04:07:38;;;;;;;10.63;3.60;;;;;;;0.32;62.54;94840.44;5011042;28;20026;-62
2021/12/01 04:10:08;;;;;;;5.65;3.75;;;;;;;0.67;58.94;94825.97;5010461;28;20057;-64
2021/12/01 04:12:34;;;;;;;6.68;4.30;;;;;;;0.58;61.72;94833.84;5010852;28;20121;-63
2021/12/01 04:15:01;;;;;;;7.05;4.28;;;;;;;0.30;63.08;94827.78;5010941;28;20030;-60
2021/12/01 04:17:26;;;;;;;8.73;4.43;;;;;;;0.23;63.49;94822.91;5010111;28;20088;-62
2021/12/01 04:19:52;;;;;;;11.68;4.78;;;;;;;-0.03;64.83;94829.50;5010268;28;20422;-60
2021/12/01 04:22:18;;;;;;;9.55;4.70;;;;;;;-0.06;64.37;94821.97;5010019;28;20034;-61
2021/12/01 04:24:44;;;;;;;6.70;4.15;;;;;;;-0.12;63.52;94815.31;5010778;28;20033;-62
2021/12/01 04:27:10;;;;;;;7.47;3.88;;;;;;;-0.24;61.87;94753.09;5010518;28;20041;-61
2021/12/01 04:29:36;;;;;;;6.97;4.10;;;;;;;-0.46;61.99;94731.72;5009510;28;20088;-61
2021/12/01 04:32:02;;;;;;;7.35;4.05;;;;;;;-0.15;62.44;94779.91;5010470;28;20042;-60
2021/12/01 04:34:27;;;;;;;7.00;4.47;;;;;;;0.05;62.47;94807.31;5010509;28;20109;-64
2021/12/01 04:36:53;;;;;;;6.07;3.75;;;;;;;0.17;62.22;94807.00;5009896;28;20081;-61
2021/12/01 04:39:19;;;;;;;4.95;3.45;;;;;;;0.31;60.54;94823.53;5010462;28;20057;-63
2021/12/01 04:41:56;;;;;;;6.13;3.58;;;;;;;0.44;61.76;94817.28;5009477;28;20045;-61
2021/12/01 04:44:24;;;;;;;8.07;4.22;;;;;;;0.48;61.93;94806.19;5010390;28;20073;-61
2021/12/01 04:46:53;;;;;;;10.77;5.07;;;;;;;0.71;61.43;94822.50;5010047;28;20038;-62
2021/12/01 04:49:21;;;;;;;6.72;4.25;;;;;;;0.67;60.98;94806.53;5009999;28;20472;-61
2021/12/01 04:51:50;;;;;;;10.05;4.82;;;;;;;0.76;61.38;94832.53;5009801;28;20099;-60
2021/12/01 04:54:16;;;;;;;6.47;4.20;;;;;;;0.55;61.60;94830.50;5009618;28;20034;-60
2021/12/01 04:56:43;;;;;;;6.45;4.30;;;;;;;0.53;61.96;94823.81;5010114;28;20030;-61
2021/12/01 04:59:09;;;;;;;7.75;4.53;;;;;;;0.36;61.88;94787.06;5009954;28;20495;-61
2021/12/01 05:01:36;;;;;;;8.07;3.92;;;;;;;0.65;61.11;94833.63;5009787;28;20053;-61
2021/12/01 05:04:03;;;;;;;7.03;4.53;;;;;;;0.70;61.89;94857.16;5009936;28;20026;-60
2021/12/01 05:06:28;;;;;;;6.10;4.22;;;;;;;0.52;61.97;94832.28;5009393;28;20038;-59
2021/12/01 05:08:54;;;;;;;6.95;4.03;;;;;;;0.50;62.73;94856.88;5010018;28;20040;-60
2021/12/01 05:11:19;;;;;;;8.68;4.60;;;;;;;0.16;62.74;94819.72;5009837;28;20037;-62
2021/12/01 05:13:45;;;;;;;6.80;4.13;;;;;;;0.34;63.43;94867.44;5009456;28;20149;-60
2021/12/01 05:16:11;;;;;;;6.70;3.97;;;;;;;0.30;62.68;94872.63;5008772;28;20026;-61
2021/12/01 05:18:36;;;;;;;8.32;4.68;;;;;;;0.39;62.11;94862.22;5005729;28;20034;-59
2021/12/01 05:21:03;;;;;;;10.00;5.40;;;;;;;0.14;63.18;94840.03;5008310;28;20026;-61
2021/12/01 05:23:29;;;;;;;6.72;4.45;;;;;;;0.32;63.19;94875.94;5008971;28;20503;-62
2021/12/01 05:25:55;;;;;;;8.90;5.25;;;;;;;0.40;62.10;94873.22;5009653;28;20136;-60
2021/12/01 05:28:21;;;;;;;7.40;4.25;;;;;;;0.47;62.50;94887.41;5009564;28;20025;-61
2021/12/01 05:30:46;;;;;;;5.70;4.03;;;;;;;0.36;62.93;94868.22;5008679;28;20037;-59
2021/12/01 05:33:14;;;;;;;7.57;4.50;;;;;;;0.59;61.83;94876.09;4991289;28;20493;-60
2021/12/01 05:35:41;;;;;;;8.85;4.57;;;;;;;0.60;62.71;94857.47;5007753;28;20091;-61
2021/12/01 05:38:06;;;;;;;8.13;4.57;;;;;;;0.55;62.45;94853.34;4998127;28;20136;-61
2021/12/01 05:40:32;;;;;;;8.20;4.43;;;;;;;0.55;62.54;94855.88;4989730;28;20474;-61
2021/12/01 05:42:58;;;;;;;7.47;4.82;;;;;;;0.61;62.32;94859.13;5003316;28;20038;-60
2021/12/01 05:45:24;;;;;;;7.95;4.68;;;;;;;0.65;62.42;94859.00;5004051;28;20037;-60
2021/12/01 05:47:52;;;;;;;8.02;5.07;;;;;;;0.31;62.18;94791.44;5005768;28;20037;-60
2021/12/01 05:50:18;;;;;;;9.55;4.80;;;;;;;0.84;61.59;94866.13;5005804;28;20141;-60
2021/12/01 05:52:44;;;;;;;6.88;4.47;;;;;;;0.99;60.60;94873.31;5004901;28;20053;-63
2021/12/01 05:55:10;;;;;;;10.02;5.20;;;;;;;1.13;60.79;94861.94;5005133;28;20655;-69
2021/12/01 05:57:36;;;;;;;7.75;4.80;;;;;;;1.22;61.86;94870.13;5003013;28;20121;-60
2021/12/01 06:00:08;;;;;;;9.95;4.75;;;;;;;1.24;61.49;94878.53;5005123;28;20496;-62
2021/12/01 06:02:34;;;;;;;8.52;5.55;;;;;;;1.04;61.28;94858.78;5005282;28;20022;-61
2021/12/01 06:04:59;;;;;;;9.65;6.07;;;;;;;0.65;61.27;94787.94;5005404;28;20057;-60
2021/12/01 06:07:25;;;;;;;8.23;4.80;;;;;;;1.27;61.16;94862.38;5003799;28;20111;-64
2021/12/01 06:09:51;;;;;;;8.30;5.97;;;;;;;1.08;61.96;94846.81;5005759;28;20041;-62
2021/12/01 06:12:17;;;;;;;7.20;5.25;;;;;;;0.98;60.77;94804.81;5005375;28;20033;-62
2021/12/01 06:14:44;;;;;;;10.40;5.07;;;;;;;1.37;61.02;94842.63;5005530;28;20587;-63
2021/12/01 06:17:11;;;;;;;8.05;4.82;;;;;;;1.63;60.59;94862.97;5004956;28;20048;-60
2021/12/01 06:19:37;;;;;;;9.15;5.10;;;;;;;1.72;60.03;94866.13;5005414;28;20030;-62
2021/12/01 06:22:03;;;;;;;11.43;7.00;;;;;;;1.80;60.98;94884.50;5005564;28;20449;-63
2021/12/01 06:24:29;;;;;;;15.05;8.32;;;;;;;1.30;60.96;94910.56;5003738;28;20042;-61
2021/12/01 06:26:54;;;;;;;11.43;8.07;;;;;;;0.91;61.23;94906.53;5004894;28;20712;-61
2021/12/01 06:29:20;;;;;;;12.43;8.80;;;;;;;0.51;61.69;94916.91;5004093;28;20087;-62
2021/12/01 06:31:45;;;;;;;7.95;6.30;;;;;;;0.37;62.43;94922.31;5005188;28;20032;-60
2021/12/01 06:34:11;;;;;;;13.32;8.95;;;;;;;0.22;63.59;94927.78;5004877;28;20107;-60
2021/12/01 06:36:36;;;;;;;12.20;8.20;;;;;;;0.04;63.82;94922.28;5004682;28;20102;-63
2021/12/01 06:39:05;;;;;;;13.93;8.88;;;;;;;-0.14;63.82;94893.13;5004285;28;20461;-62
2021/12/01 06:41:31;;;;;;;14.60;10.00;;;;;;;-0.27;65.27;94902.69;5000583;28;20041;-61
2021/12/01 06:43:57;;;;;;;16.85;10.07;;;;;;;-0.10;64.98;94920.06;5004667;28;20429;-62
2021/12/01 06:46:23;;;;;;;14.60;8.63;;;;;;;-0.51;65.25;94850.03;5003731;28;20037;-62
2021/12/01 06:48:49;;;;;;;14.02;9.88;;;;;;;0.03;65.76;94924.84;5007886;28;20505;-60
2021/12/01 06:51:14;;;;;;;16.52;10.30;;;;;;;0.25;65.52;94958.16;5004681;28;20109;-61
2021/12/01 06:53:40;;;;;;;14.07;9.32;;;;;;;0.29;66.08;94952.13;5003106;28;20568;-61
2021/12/01 06:56:06;;;;;;;13.40;9.50;;;;;;;0.14;65.43;94935.56;5007815;28;20030;-61
2021/12/01 06:58:31;;;;;;;14.10;9.07;;;;;;;0.50;65.48;94958.38;5004881;28;20030;-60
2021/12/01 07:00:57;;;;;;;14.30;9.63;;;;;;;0.38;65.35;94910.47;5001178;28;20053;-61
2021/12/01 07:03:22;;;;;;;16.17;11.48;;;;;;;0.46;64.67;94944.09;5007313;28;20022;-63
2021/12/01 07:05:48;;;;;;;19.70;10.85;;;;;;;0.41;65.74;94951.84;5006556;28;20433;-61
2021/12/01 07:08:14;;;;;;;15.88;11.10;;;;;;;0.36;65.57;94963.78;5007335;28;20065;-63
2021/12/01 07:10:39;;;;;;;17.80;13.27;;;;;;;0.50;64.32;94969.34;5006632;28;20401;-60
2021/12/01 07:13:05;;;;;;;17.40;11.50;;;;;;;0.61;63.23;94941.19;5007283;28;20725;-62
2021/12/01 07:15:30;;;;;;;15.23;10.73;;;;;;;0.93;62.64;94964.88;5007259;28;20022;-64
2021/12/01 07:17:56;;;;;;;16.00;10.73;;;;;;;1.11;62.10;94943.25;5007091;28;20030;-61
2021/12/01 07:20:21;;;;;;;15.75;10.40;;;;;;;1.45;61.16;94955.03;5006630;28;20113;-61
2021/12/01 07:22:47;;;;;;;16.10;9.65;;;;;;;1.54;59.72;94914.09;5007424;28;20108;-64
2021/12/01 07:25:13;;;;;;;14.23;8.80;;;;;;;1.83;58.93;94948.81;5022602;28;20391;-63
2021/12/01 07:27:39;;;;;;;13.02;8.50;;;;;;;1.31;59.34;94909.66;5007137;28;20045;-62
2021/12/01 07:30:06;;;;;;;14.73;9.25;;;;;;;1.55;59.45;94938.63;5007048;28;20033;-61
2021/12/01 07:32:31;;;;;;;15.77;10.68;;;;;;;1.56;59.57;94914.03;5005319;28;20042;-62
2021/12/01 07:34:57;;;;;;;14.88;9.38;;;;;;;1.60;58.67;94893.56;5007326;28;20036;-61
2021/12/01 07:37:23;;;;;;;13.32;9.15;;;;;;;1.70;58.19;94883.97;5006548;28;20049;-63
2021/12/01 07:39:48;;;;;;;15.30;8.75;;;;;;;2.00;58.80;94950.84;5007633;28;20062;-62
2021/12/01 07:42:15;;;;;;;14.73;9.10;;;;;;;2.09;58.95;94947.19;5010079;28;20409;-63
2021/12/01 07:44:41;;;;;;;13.63;7.88;;;;;;;2.32;57.50;94926.09;5010315;28;20045;-61
2021/12/01 07:47:08;;;;;;;13.48;9.07;;;;;;;2.96;55.93;94942.66;5010887;28;20040;-63
2021/12/01 07:49:34;;;;;;;11.65;8.10;;;;;;;2.92;54.66;94920.75;5010749;28;20030;-65
2021/12/01 07:52:00;;;;;;;15.63;9.48;;;;;;;3.04;55.26;94950.88;5009138;28;20034;-63
2021/12/01 07:54:26;;;;;;;15.73;8.25;;;;;;;2.98;55.66;94974.00;5010032;28;20042;-62
2021/12/01 07:56:51;;;;;;;12.63;9.52;;;;;;;3.46;54.74;94972.34;5011266;28;20080;-61
2021/12/01 07:59:16;;;;;;;17.95;8.57;;;;;;;3.38;53.48;94911.47;5010799;28;20026;-62
2021/12/01 08:01:43;;;;;;;13.45;8.93;;;;;;;3.71;53.80;94949.34;5010283;28;20099;-60
2021/12/01 08:04:12;;;;;;;13.70;9.95;;;;;;;4.00;53.47;94950.81;5009137;28;20034;-63
2021/12/01 08:06:38;;;;;;;15.13;9.05;;;;;;;4.61;50.77;94969.72;5009899;28;20133;-61
2021/12/01 08:09:05;;;;;;;15.43;9.68;;;;;;;4.84;49.87;94940.66;5009851;28;20048;-62
2021/12/01 08:11:32;;;;;;;16.05;10.82;;;;;;;5.36;48.73;94962.34;5008989;28;20033;-64
2021/12/01 08:13:57;;;;;;;11.70;9.02;;;;;;;5.48;48.70;94967.75;5009959;28;20030;-62
2021/12/01 08:16:23;;;;;;;15.52;9.95;;;;;;;5.76;48.63;94966.53;5009758;28;20032;-61
2021/12/01 08:18:51;;;;;;;14.57;9.88;;;;;;;5.82;47.91;94965.41;5008841;28;20030;-60
2021/12/01 08:21:18;;;;;;;11.95;9.15;;;;;;;5.76;48.06;94973.38;5009834;28;20041;-62
2021/12/01 08:23:43;;;;;;;14.98;9.38;;;;;;;5.67;48.28;94964.38;5009522;28;20036;-61
2021/12/01 08:26:09;;;;;;;17.73;9.98;;;;;;;5.75;48.87;94951.25;5009996;28;20030;-64
2021/12/01 08:28:34;;;;;;;15.95;10.45;;;;;;;6.26;48.16;94954.88;5008033;28;20041;-63
2021/12/01 08:31:00;;;;;;;14.27;9.55;;;;;;;6.44;46.30;94940.38;5009622;28;20121;-64
2021/12/01 08:33:25;;;;;;;16.98;10.00;;;;;;;7.77;44.79;94941.41;5008241;28;20048;-62
2021/12/01 08:35:51;;;;;;;14.35;9.93;;;;;;;10.56;39.49;94918.28;5009882;28;20025;-62
2021/12/01 08:38:16;;;;;;;12.45;8.77;;;;;;;13.72;32.80;94892.63;5009377;28;20081;-61
2021/12/01 08:40:42;;;;;;;13.60;10.30;;;;;;;16.05;28.53;94910.06;5009384;28;20026;-61
2021/12/01 08:43:08;;;;;;;17.13;10.50;;;;;;;17.50;27.17;94933.69;5007508;28;20030;-61
2021/12/01 08:45:33;;;;;;;15.25;9.60;;;;;;;18.98;24.87;94932.81;5009539;28;20057;-61
2021/12/01 08:47:59;;;;;;;19.20;10.73;;;;;;;19.38;24.30;94934.09;5004704;28;20048;-61
2021/12/01 08:50:24;;;;;;;14.60;10.05;;;;;;;19.56;22.20;94913.97;5009373;28;20030;-63
2021/12/01 08:52:50;;;;;;;16.05;10.02;;;;;;;20.97;21.48;94931.03;5008921;28;20026;-63
2021/12/01 08:55:16;;;;;;;12.15;9.75;;;;;;;22.03;20.21;94891.53;4991291;28;20046;-62
2021/12/01 08:57:42;;;;;;;17.42;11.75;;;;;;;22.31;19.73;94913.94;5007835;28;20594;-66
2021/12/01 09:00:08;;;;;;;13.40;10.68;;;;;;;21.12;20.56;94937.28;5009624;28;20038;-65
2021/12/01 09:02:34;;;;;;;14.60;10.70;;;;;;;22.44;19.58;94939.66;5009394;28;20030;-69
2021/12/01 09:04:59;;;;;;;16.15;11.70;;;;;;;24.02;18.23;94934.66;5008957;28;20091;-67
2021/12/01 09:07:25;;;;;;;17.27;11.73;;;;;;;21.55;19.84;94939.75;5008355;28;20042;-67
2021/12/01 09:09:51;;;;;;;15.20;10.32;;;;;;;20.09;20.66;94896.44;5008984;28;20037;-69
2021/12/01 09:12:18;;;;;;;16.27;11.43;;;;;;;16.40;25.04;94950.38;5008762;28;20034;-68
2021/12/01 09:14:44;;;;;;;18.02;12.18;;;;;;;14.87;27.22;94932.81;5008819;28;20030;-67
2021/12/01 09:17:12;;;;;;;16.63;12.70;;;;;;;15.03;28.24;94978.28;5008538;28;20061;-69
2021/12/01 09:19:38;;;;;;;14.18;11.38;;;;;;;18.43;24.15;94981.56;5008659;28;20026;-68
2021/12/01 09:22:04;;;;;;;15.75;12.25;;;;;;;21.20;21.46;94952.16;5009009;28;20049;-67
2021/12/01 09:24:30;;;;;;;23.17;16.48;;;;;;;22.34;19.04;94897.84;5007382;28;20307;-68
2021/12/01 09:26:56;;;;;;;18.92;13.35;;;;;;;23.41;18.37;94947.06;5008601;28;20022;-67
2021/12/01 09:29:22;;;;;;;19.23;13.40;;;;;;;24.06;18.28;94944.84;5007969;28;20109;-71
2021/12/01 09:31:48;;;;;;;14.23;12.00;;;;;;;24.01;16.96;94924.31;5008519;28;20113;-68
2021/12/01 09:34:14;;;;;;;18.08;12.02;;;;;;;24.85;17.08;94941.56;5008770;28;20057;-69
2021/12/01 09:36:39;;;;;;;18.85;14.07;;;;;;;24.32;18.01;94947.81;5007890;28;20050;-68
2021/12/01 09:39:05;;;;;;;15.45;12.43;;;;;;;25.23;16.12;94949.22;5007860;28;20045;-69
2021/12/01 09:41:31;;;;;;;19.50;14.30;;;;;;;25.48;16.58;94955.78;5007874;28;20489;-70
2021/12/01 09:43:57;;;;;;;19.52;14.20;;;;;;;26.13;15.70;94937.13;5008416;28;20022;-65
2021/12/01 09:46:24;;;;;;;16.42;12.55;;;;;;;25.06;15.66;94803.59;5006470;28;20034;-66
2021/12/01 09:48:49;;;;;;;15.02;12.38;;;;;;;25.75;16.08;94908.44;5006862;28;20034;-68
2021/12/01 09:51:17;;;;;;;18.10;13.13;;;;;;;26.00;16.17;94940.50;5008434;28;20202;-69
2021/12/01 09:53:44;;;;;;;15.80;12.38;;;;;;;25.89;15.74;94942.84;5021353;28;20030;-70
2021/12/01 09:56:10;;;;;;;17.27;13.63;;;;;;;24.86;16.15;94869.34;5008094;28;20034;-66
2021/12/01 09:58:37;;;;;;;24.70;16.60;;;;;;;25.95;15.88;94937.59;5007680;28;20065;-69
2021/12/01 10:01:07;;;;;;;23.08;16.15;;;;;;;26.29;15.58;94940.47;5008049;28;20474;-71
2021/12/01 10:03:33;;;;;;;18.90;15.68;;;;;;;26.43;15.80;94950.06;5006185;28;20033;-69
2021/12/01 10:06:04;;;;;;;21.13;15.50;;;;;;;27.06;15.02;94943.81;5007468;28;20584;-65
2021/12/01 10:08:36;;;;;;;16.73;13.65;;;;;;;27.16;15.12;94924.91;5007182;28;20038;-66
2021/12/01 10:11:08;;;;;;;19.75;14.10;;;;;;;26.11;15.50;94886.31;5007931;28;20041;-67
2021/12/01 10:13:38;;;;;;;21.30;14.50;;;;;;;24.75;17.18;94923.41;5004041;28;20034;-71
2021/12/01 10:16:06;;;;;;;16.83;12.18;;;;;;;25.63;16.71;94942.50;5007553;28;20026;-68
2021/12/01 10:18:40;;;;;;;17.08;12.18;;;;;;;26.25;16.40;94928.66;5007668;28;20065;-71
2021/12/01 10:21:28;;;;;;;15.35;11.77;;;;;;;23.54;18.63;94942.03;5006058;28;20476;-66
2021/12/01 10:24:07;;;;;;;16.08;12.30;;;;;;;25.01;17.42;94866.66;5007582;28;20449;-67
2021/12/01 10:26:39;;;;;;;17.80;12.48;;;;;;;23.97;17.36;94818.53;5022457;28;20026;-68
2021/12/01 10:29:09;;;;;;;16.77;11.80;;;;;;;21.23;21.16;94939.53;5006689;28;20037;-70
2021/12/01 10:31:39;;;;;;;18.98;11.48;;;;;;;23.43;19.11;94924.03;5006701;28;20022;-65
2021/12/01 10:34:29;;;;;;;16.17;10.10;;;;;;;22.59;19.96;94940.53;5006880;28;20105;-67
2021/12/01 10:40:09;;;;;;;15.07;9.57;;;;;;;22.94;20.21;94926.03;5007213;28;20573;-65
2021/12/01 10:42:55;;;;;;;14.73;9.25;;;;;;;24.66;17.97;94929.78;5005002;28;20053;-72
2021/12/01 10:45:26;;;;;;;18.13;10.45;;;;;;;26.01;17.46;94921.03;5000251;28;20030;-67
2021/12/01 10:47:51;;;;;;;14.95;7.43;;;;;;;24.81;17.89;94893.66;5007105;28;20054;-68
2021/12/01 10:50:20;;;;;;;13.38;8.10;;;;;;;24.04;18.71;94921.31;5008055;28;20076;-68
2021/12/01 10:52:52;;;;;;;10.82;7.18;;;;;;;25.73;17.19;94913.09;5007192;28;20021;-67
2021/12/01 10:55:21;;;;;;;10.30;6.95;;;;;;;26.49;15.86;94855.97;5007389;28;20030;-70
2021/12/01 10:57:59;;;;;;;8.95;6.18;;;;;;;27.14;15.36;94899.44;5005750;28;20021;-67
2021/12/01 11:00:36;;;;;;;11.82;6.45;;;;;;;27.88;15.37;94899.41;5006346;28;20180;-70
2021/12/01 11:03:16;;;;;;;12.57;7.45;;;;;;;28.11;14.49;94816.00;5005255;28;20619;-68
2021/12/01 11:05:43;;;;;;;15.07;10.48;;;;;;;27.75;15.07;94843.81;5007104;28;20026;-68
2021/12/01 11:08:10;;;;;;;14.73;10.70;;;;;;;27.68;15.38;94902.91;5022118;28;20421;-66
2021/12/01 11:10:36;;;;;;;23.00;12.57;;;;;;;27.63;15.28;94893.94;5007401;28;20050;-69
2021/12/01 11:13:04;;;;;;;14.75;11.35;;;;;;;26.82;15.41;94874.56;5006515;28;20061;-70
2021/12/01 11:15:38;;;;;;;14.50;10.77;;;;;;;27.66;14.53;94867.06;5010381;28;20061;-70
2021/12/01 11:18:06;;;;;;;14.95;10.98;;;;;;;28.10;14.38;94868.19;5010349;28;20552;-73
2021/12/01 11:20:48;;;;;;;16.92;11.82;;;;;;;28.48;14.42;94893.94;5009176;28;20045;-69
2021/12/01 11:23:17;;;;;;;32.13;12.40;;;;;;;27.18;15.40;94896.38;5011218;28;20088;-69
2021/12/01 11:25:50;;;;;;;24.00;12.93;;;;;;;27.68;15.09;94887.03;5009101;28;20567;-69
2021/12/01 11:28:17;;;;;;;14.98;10.18;;;;;;;28.58;14.71;94874.94;5010727;28;20060;-69
2021/12/01 11:30:46;;;;;;;15.52;9.82;;;;;;;26.52;15.94;94851.09;5010157;28;20022;-70
2021/12/01 11:33:16;;;;;;;21.58;9.63;;;;;;;26.86;15.64;94846.72;5010804;28;20025;-70
2021/12/01 11:35:44;;;;;;;11.57;8.13;;;;;;;25.69;17.07;94848.47;5008829;28;20030;-67
2021/12/01 11:38:12;;;;;;;10.40;7.13;;;;;;;25.25;16.92;94821.38;5010248;28;20115;-68
2021/12/01 11:40:38;;;;;;;13.93;6.53;;;;;;;25.30;17.27;94852.47;5008200;28;20057;-71